sensor_id;sensor_type;location;lat;lon;timestamp;P1;durP1;ratioP1;P2;durP2;ratioP2
56911;SDS011;42800;53.928;27.662;2023-06-04T00:02:24;1.67;;;1.52;;
56911;SDS011;42800;53.928;27.662;2023-06-04T00:04:50;2.45;;;1.48;;
56911;SDS011;42800;53.928;27.662;2023-06-04T00:07:16;7.03;;;1.58;;
56911;SDS011;42800;53.928;27.662;2023-06-04T00:09:42;2.13;;;1.60;;
56911;SDS011;42800;53.928;27.662;2023-06-04T00:12:09;2.15;;;1.50;;
56911;SDS011;42800;53.928;27.662;2023-06-04T00:14:35;1.50;;;1.40;;
56911;SDS011;42800;53.928;27.662;2023-06-04T00:17:01;1.90;;;1.80;;
56911;SDS011;42800;53.928;27.662;2023-06-04T00:19:27;5.75;;;2.88;;
56911;SDS011;42800;53.928;27.662;2023-06-04T00:21:54;5.22;;;1.70;;
56911;SDS011;42800;53.928;27.662;2023-06-04T00:24:20;2.15;;;1.55;;
56911;SDS011;42800;53.928;27.662;2023-06-04T00:26:46;2.85;;;1.65;;
56911;SDS011;42800;53.928;27.662;2023-06-04T00:29:12;3.70;;;1.55;;
56911;SDS011;42800;53.928;27.662;2023-06-04T00:31:38;3.67;;;1.70;;
56911;SDS011;42800;53.928;27.662;2023-06-04T00:34:04;3.05;;;1.58;;
56911;SDS011;42800;53.928;27.662;2023-06-04T00:36:30;9.32;;;2.00;;
56911;SDS011;42800;53.928;27.662;2023-06-04T00:38:56;1.95;;;1.67;;
56911;SDS011;42800;53.928;27.662;2023-06-04T00:41:22;2.70;;;2.00;;
56911;SDS011;42800;53.928;27.662;2023-06-04T00:43:48;2.53;;;1.65;;
56911;SDS011;42800;53.928;27.662;2023-06-04T00:46:20;2.95;;;1.77;;
56911;SDS011;42800;53.928;27.662;2023-06-04T00:48:46;6.30;;;1.85;;
56911;SDS011;42800;53.928;27.662;2023-06-04T00:51:12;3.13;;;1.65;;
56911;SDS011;42800;53.928;27.662;2023-06-04T00:53:39;3.00;;;2.00;;
56911;SDS011;42800;53.928;27.662;2023-06-04T00:56:05;3.10;;;1.70;;
56911;SDS011;42800;53.928;27.662;2023-06-04T00:58:32;4.93;;;1.48;;
56911;SDS011;42800;53.928;27.662;2023-06-04T01:00:59;2.10;;;1.85;;
56911;SDS011;42800;53.928;27.662;2023-06-04T01:03:29;2.20;;;1.40;;
56911;SDS011;42800;53.928;27.662;2023-06-04T01:06:01;2.95;;;1.77;;
56911;SDS011;42800;53.928;27.662;2023-06-04T01:08:35;3.40;;;1.63;;
56911;SDS011;42800;53.928;27.662;2023-06-04T01:11:03;4.53;;;1.90;;
56911;SDS011;42800;53.928;27.662;2023-06-04T01:13:28;7.13;;;1.60;;
56911;SDS011;42800;53.928;27.662;2023-06-04T01:15:54;6.53;;;1.92;;
56911;SDS011;42800;53.928;27.662;2023-06-04T01:18:22;2.45;;;1.63;;
56911;SDS011;42800;53.928;27.662;2023-06-04T01:20:53;2.47;;;1.60;;
56911;SDS011;42800;53.928;27.662;2023-06-04T01:23:28;7.30;;;1.83;;
56911;SDS011;42800;53.928;27.662;2023-06-04T01:25:59;2.95;;;1.80;;
56911;SDS011;42800;53.928;27.662;2023-06-04T01:28:28;1.98;;;1.42;;
56911;SDS011;42800;53.928;27.662;2023-06-04T01:30:55;2.33;;;1.60;;
56911;SDS011;42800;53.928;27.662;2023-06-04T01:33:22;3.45;;;2.00;;
56911;SDS011;42800;53.928;27.662;2023-06-04T01:35:48;3.25;;;1.67;;
56911;SDS011;42800;53.928;27.662;2023-06-04T01:38:14;2.95;;;1.70;;
56911;SDS011;42800;53.928;27.662;2023-06-04T01:40:40;4.00;;;1.77;;
56911;SDS011;42800;53.928;27.662;2023-06-04T01:43:06;3.58;;;1.70;;
56911;SDS011;42800;53.928;27.662;2023-06-04T01:45:33;3.70;;;1.92;;
56911;SDS011;42800;53.928;27.662;2023-06-04T01:48:00;2.55;;;1.95;;
56911;SDS011;42800;53.928;27.662;2023-06-04T01:50:27;1.67;;;1.58;;
56911;SDS011;42800;53.928;27.662;2023-06-04T01:52:54;3.42;;;1.80;;
56911;SDS011;42800;53.928;27.662;2023-06-04T01:55:20;3.55;;;1.73;;
56911;SDS011;42800;53.928;27.662;2023-06-04T01:57:46;7.47;;;2.08;;
56911;SDS011;42800;53.928;27.662;2023-06-04T02:00:12;3.28;;;1.92;;
56911;SDS011;42800;53.928;27.662;2023-06-04T02:02:41;2.13;;;1.65;;
56911;SDS011;42800;53.928;27.662;2023-06-04T02:05:08;3.45;;;1.80;;
56911;SDS011;42800;53.928;27.662;2023-06-04T02:07:34;4.20;;;2.42;;
56911;SDS011;42800;53.928;27.662;2023-06-04T02:10:03;2.75;;;2.20;;
56911;SDS011;42800;53.928;27.662;2023-06-04T02:12:30;4.75;;;1.80;;
56911;SDS011;42800;53.928;27.662;2023-06-04T02:14:56;4.28;;;2.33;;
56911;SDS011;42800;53.928;27.662;2023-06-04T02:17:22;4.68;;;2.13;;
56911;SDS011;42800;53.928;27.662;2023-06-04T02:19:48;3.17;;;2.05;;
56911;SDS011;42800;53.928;27.662;2023-06-04T02:22:15;9.05;;;2.30;;
56911;SDS011;42800;53.928;27.662;2023-06-04T02:24:41;5.47;;;2.30;;
56911;SDS011;42800;53.928;27.662;2023-06-04T02:27:07;4.18;;;2.05;;
56911;SDS011;42800;53.928;27.662;2023-06-04T02:29:34;4.03;;;2.38;;
56911;SDS011;42800;53.928;27.662;2023-06-04T02:32:00;5.45;;;2.45;;
56911;SDS011;42800;53.928;27.662;2023-06-04T02:34:26;7.65;;;1.98;;
56911;SDS011;42800;53.928;27.662;2023-06-04T02:36:53;3.75;;;1.92;;
56911;SDS011;42800;53.928;27.662;2023-06-04T02:39:19;4.97;;;2.30;;
56911;SDS011;42800;53.928;27.662;2023-06-04T02:41:45;11.18;;;2.13;;
56911;SDS011;42800;53.928;27.662;2023-06-04T02:44:11;3.72;;;2.28;;
56911;SDS011;42800;53.928;27.662;2023-06-04T02:46:38;4.85;;;2.00;;
56911;SDS011;42800;53.928;27.662;2023-06-04T02:49:04;3.60;;;1.92;;
56911;SDS011;42800;53.928;27.662;2023-06-04T02:51:30;9.13;;;2.78;;
56911;SDS011;42800;53.928;27.662;2023-06-04T02:53:58;3.00;;;1.90;;
56911;SDS011;42800;53.928;27.662;2023-06-04T02:56:24;3.08;;;1.80;;
56911;SDS011;42800;53.928;27.662;2023-06-04T02:58:50;5.97;;;1.88;;
56911;SDS011;42800;53.928;27.662;2023-06-04T03:01:18;2.60;;;1.77;;
56911;SDS011;42800;53.928;27.662;2023-06-04T03:03:45;3.00;;;1.67;;
56911;SDS011;42800;53.928;27.662;2023-06-04T03:06:11;3.15;;;1.50;;
56911;SDS011;42800;53.928;27.662;2023-06-04T03:08:39;2.78;;;1.70;;
56911;SDS011;42800;53.928;27.662;2023-06-04T03:11:06;3.05;;;1.70;;
56911;SDS011;42800;53.928;27.662;2023-06-04T03:13:33;4.05;;;1.90;;
56911;SDS011;42800;53.928;27.662;2023-06-04T03:15:58;3.13;;;1.85;;
56911;SDS011;42800;53.928;27.662;2023-06-04T03:18:26;2.13;;;1.52;;
56911;SDS011;42800;53.928;27.662;2023-06-04T03:20:52;2.15;;;1.80;;
56911;SDS011;42800;53.928;27.662;2023-06-04T03:23:18;2.65;;;1.60;;
56911;SDS011;42800;53.928;27.662;2023-06-04T03:25:44;4.10;;;1.50;;
56911;SDS011;42800;53.928;27.662;2023-06-04T03:28:11;5.30;;;2.15;;
56911;SDS011;42800;53.928;27.662;2023-06-04T03:30:37;2.67;;;1.60;;
56911;SDS011;42800;53.928;27.662;2023-06-04T03:33:05;2.13;;;1.65;;
56911;SDS011;42800;53.928;27.662;2023-06-04T03:35:31;4.85;;;1.70;;
56911;SDS011;42800;53.928;27.662;2023-06-04T03:37:57;2.58;;;1.33;;
56911;SDS011;42800;53.928;27.662;2023-06-04T03:40:23;5.15;;;2.05;;
56911;SDS011;42800;53.928;27.662;2023-06-04T03:42:49;2.28;;;1.40;;
56911;SDS011;42800;53.928;27.662;2023-06-04T03:45:15;2.28;;;1.40;;
56911;SDS011;42800;53.928;27.662;2023-06-04T03:47:41;2.42;;;1.42;;
56911;SDS011;42800;53.928;27.662;2023-06-04T03:50:07;2.83;;;1.40;;
56911;SDS011;42800;53.928;27.662;2023-06-04T03:52:34;1.50;;;1.40;;
56911;SDS011;42800;53.928;27.662;2023-06-04T03:55:00;2.08;;;1.50;;
56911;SDS011;42800;53.928;27.662;2023-06-04T03:57:26;2.60;;;1.40;;
56911;SDS011;42800;53.928;27.662;2023-06-04T03:59:53;7.63;;;1.77;;
56911;SDS011;42800;53.928;27.662;2023-06-04T04:02:19;3.30;;;1.83;;
56911;SDS011;42800;53.928;27.662;2023-06-04T04:04:45;2.78;;;1.60;;
56911;SDS011;42800;53.928;27.662;2023-06-04T04:07:11;3.88;;;2.45;;
56911;SDS011;42800;53.928;27.662;2023-06-04T04:09:37;8.57;;;1.63;;
56911;SDS011;42800;53.928;27.662;2023-06-04T04:12:03;5.75;;;1.52;;
56911;SDS011;42800;53.928;27.662;2023-06-04T04:14:29;4.30;;;1.52;;
56911;SDS011;42800;53.928;27.662;2023-06-04T04:16:55;2.00;;;1.50;;
56911;SDS011;42800;53.928;27.662;2023-06-04T04:19:22;2.85;;;1.40;;
56911;SDS011;42800;53.928;27.662;2023-06-04T04:21:48;1.35;;;0.90;;
56911;SDS011;42800;53.928;27.662;2023-06-04T04:24:21;2.40;;;1.30;;
56911;SDS011;42800;53.928;27.662;2023-06-04T04:26:47;4.80;;;1.48;;
56911;SDS011;42800;53.928;27.662;2023-06-04T04:29:17;1.45;;;1.20;;
56911;SDS011;42800;53.928;27.662;2023-06-04T04:31:48;4.85;;;1.33;;
56911;SDS011;42800;53.928;27.662;2023-06-04T04:34:14;3.53;;;1.20;;
56911;SDS011;42800;53.928;27.662;2023-06-04T04:36:41;4.57;;;1.27;;
56911;SDS011;42800;53.928;27.662;2023-06-04T04:39:06;4.00;;;1.45;;
56911;SDS011;42800;53.928;27.662;2023-06-04T04:41:33;2.35;;;0.90;;
56911;SDS011;42800;53.928;27.662;2023-06-04T04:44:02;4.05;;;1.40;;
56911;SDS011;42800;53.928;27.662;2023-06-04T04:46:28;6.93;;;1.38;;
56911;SDS011;42800;53.928;27.662;2023-06-04T04:48:54;1.33;;;1.15;;
56911;SDS011;42800;53.928;27.662;2023-06-04T04:51:20;6.18;;;1.17;;
56911;SDS011;42800;53.928;27.662;2023-06-04T04:53:47;4.15;;;1.63;;
56911;SDS011;42800;53.928;27.662;2023-06-04T04:56:13;2.25;;;1.10;;
56911;SDS011;42800;53.928;27.662;2023-06-04T04:58:39;4.53;;;1.33;;
56911;SDS011;42800;53.928;27.662;2023-06-04T05:01:05;4.20;;;1.00;;
56911;SDS011;42800;53.928;27.662;2023-06-04T05:03:31;1.63;;;1.10;;
56911;SDS011;42800;53.928;27.662;2023-06-04T05:05:57;2.97;;;1.23;;
56911;SDS011;42800;53.928;27.662;2023-06-04T05:08:23;2.33;;;1.30;;
56911;SDS011;42800;53.928;27.662;2023-06-04T05:10:50;2.60;;;1.10;;
56911;SDS011;42800;53.928;27.662;2023-06-04T05:13:16;3.03;;;1.50;;
56911;SDS011;42800;53.928;27.662;2023-06-04T05:15:43;5.93;;;1.20;;
56911;SDS011;42800;53.928;27.662;2023-06-04T05:18:09;3.47;;;1.65;;
56911;SDS011;42800;53.928;27.662;2023-06-04T05:20:35;5.55;;;1.48;;
56911;SDS011;42800;53.928;27.662;2023-06-04T05:23:03;4.97;;;1.05;;
56911;SDS011;42800;53.928;27.662;2023-06-04T05:25:29;2.88;;;0.90;;
56911;SDS011;42800;53.928;27.662;2023-06-04T05:27:57;0.88;;;0.80;;
56911;SDS011;42800;53.928;27.662;2023-06-04T05:30:22;5.28;;;1.00;;
56911;SDS011;42800;53.928;27.662;2023-06-04T05:32:48;1.63;;;1.10;;
56911;SDS011;42800;53.928;27.662;2023-06-04T05:35:15;3.10;;;1.35;;
56911;SDS011;42800;53.928;27.662;2023-06-04T05:37:41;3.47;;;1.30;;
56911;SDS011;42800;53.928;27.662;2023-06-04T05:40:10;3.38;;;1.33;;
56911;SDS011;42800;53.928;27.662;2023-06-04T05:42:37;1.30;;;1.20;;
56911;SDS011;42800;53.928;27.662;2023-06-04T05:45:04;1.85;;;1.38;;
56911;SDS011;42800;53.928;27.662;2023-06-04T05:47:33;2.00;;;1.17;;
56911;SDS011;42800;53.928;27.662;2023-06-04T05:49:59;14.35;;;1.77;;
56911;SDS011;42800;53.928;27.662;2023-06-04T05:52:25;5.03;;;1.60;;
56911;SDS011;42800;53.928;27.662;2023-06-04T05:54:51;2.83;;;1.10;;
56911;SDS011;42800;53.928;27.662;2023-06-04T05:57:17;1.15;;;1.02;;
56911;SDS011;42800;53.928;27.662;2023-06-04T05:59:43;2.03;;;1.20;;
56911;SDS011;42800;53.928;27.662;2023-06-04T06:02:10;2.75;;;1.27;;
56911;SDS011;42800;53.928;27.662;2023-06-04T06:04:37;3.90;;;1.17;;
56911;SDS011;42800;53.928;27.662;2023-06-04T06:07:03;2.10;;;1.00;;
56911;SDS011;42800;53.928;27.662;2023-06-04T06:09:30;1.30;;;1.20;;
56911;SDS011;42800;53.928;27.662;2023-06-04T06:11:56;0.80;;;0.73;;
56911;SDS011;42800;53.928;27.662;2023-06-04T06:14:21;2.97;;;1.00;;
56911;SDS011;42800;53.928;27.662;2023-06-04T06:16:48;5.70;;;1.10;;
56911;SDS011;42800;53.928;27.662;2023-06-04T06:19:15;3.47;;;1.10;;
56911;SDS011;42800;53.928;27.662;2023-06-04T06:21:41;5.75;;;1.30;;
56911;SDS011;42800;53.928;27.662;2023-06-04T06:24:08;2.60;;;1.13;;
56911;SDS011;42800;53.928;27.662;2023-06-04T06:26:33;2.67;;;1.20;;
56911;SDS011;42800;53.928;27.662;2023-06-04T06:28:59;2.60;;;1.13;;
56911;SDS011;42800;53.928;27.662;2023-06-04T06:31:25;2.20;;;1.10;;
56911;SDS011;42800;53.928;27.662;2023-06-04T06:33:52;2.42;;;1.10;;
56911;SDS011;42800;53.928;27.662;2023-06-04T06:36:19;2.58;;;0.88;;
56911;SDS011;42800;53.928;27.662;2023-06-04T06:38:45;1.83;;;1.10;;
56911;SDS011;42800;53.928;27.662;2023-06-04T06:41:11;3.72;;;1.10;;
56911;SDS011;42800;53.928;27.662;2023-06-04T06:43:37;3.38;;;1.20;;
56911;SDS011;42800;53.928;27.662;2023-06-04T06:46:03;4.55;;;1.50;;
56911;SDS011;42800;53.928;27.662;2023-06-04T06:48:29;1.52;;;1.15;;
56911;SDS011;42800;53.928;27.662;2023-06-04T06:50:55;1.85;;;0.90;;
56911;SDS011;42800;53.928;27.662;2023-06-04T06:53:21;3.15;;;0.82;;
56911;SDS011;42800;53.928;27.662;2023-06-04T06:55:47;2.83;;;1.42;;
56911;SDS011;42800;53.928;27.662;2023-06-04T06:58:13;5.50;;;0.80;;
56911;SDS011;42800;53.928;27.662;2023-06-04T07:00:40;4.47;;;3.38;;
56911;SDS011;42800;53.928;27.662;2023-06-04T07:03:06;1.98;;;0.90;;
56911;SDS011;42800;53.928;27.662;2023-06-04T07:05:33;2.92;;;1.10;;
56911;SDS011;42800;53.928;27.662;2023-06-04T07:07:59;1.90;;;0.90;;
56911;SDS011;42800;53.928;27.662;2023-06-04T07:10:26;2.30;;;1.30;;
56911;SDS011;42800;53.928;27.662;2023-06-04T07:12:52;3.72;;;1.10;;
56911;SDS011;42800;53.928;27.662;2023-06-04T07:15:18;2.17;;;1.30;;
56911;SDS011;42800;53.928;27.662;2023-06-04T07:17:44;2.50;;;1.10;;
56911;SDS011;42800;53.928;27.662;2023-06-04T07:20:10;3.97;;;0.90;;
56911;SDS011;42800;53.928;27.662;2023-06-04T07:22:37;3.15;;;0.90;;
56911;SDS011;42800;53.928;27.662;2023-06-04T07:25:03;1.27;;;0.80;;
56911;SDS011;42800;53.928;27.662;2023-06-04T07:27:31;1.25;;;0.90;;
56911;SDS011;42800;53.928;27.662;2023-06-04T07:29:59;0.80;;;0.80;;
56911;SDS011;42800;53.928;27.662;2023-06-04T07:32:25;5.03;;;1.00;;
56911;SDS011;42800;53.928;27.662;2023-06-04T07:34:51;1.13;;;0.90;;
56911;SDS011;42800;53.928;27.662;2023-06-04T07:37:17;2.42;;;0.90;;
56911;SDS011;42800;53.928;27.662;2023-06-04T07:39:43;0.70;;;0.70;;
56911;SDS011;42800;53.928;27.662;2023-06-04T07:42:08;3.22;;;0.80;;
56911;SDS011;42800;53.928;27.662;2023-06-04T07:44:36;2.30;;;0.75;;
56911;SDS011;42800;53.928;27.662;2023-06-04T07:47:02;1.00;;;0.70;;
56911;SDS011;42800;53.928;27.662;2023-06-04T07:49:28;1.30;;;0.70;;
56911;SDS011;42800;53.928;27.662;2023-06-04T07:51:54;4.93;;;0.68;;
56911;SDS011;42800;53.928;27.662;2023-06-04T07:54:20;1.75;;;0.80;;
56911;SDS011;42800;53.928;27.662;2023-06-04T07:56:46;3.00;;;0.80;;
56911;SDS011;42800;53.928;27.662;2023-06-04T07:59:12;0.68;;;0.60;;
56911;SDS011;42800;53.928;27.662;2023-06-04T08:01:39;3.20;;;0.82;;
56911;SDS011;42800;53.928;27.662;2023-06-04T08:04:05;1.33;;;0.60;;
56911;SDS011;42800;53.928;27.662;2023-06-04T08:06:31;0.65;;;0.60;;
56911;SDS011;42800;53.928;27.662;2023-06-04T08:08:56;3.40;;;0.60;;
56911;SDS011;42800;53.928;27.662;2023-06-04T08:11:22;1.35;;;1.00;;
56911;SDS011;42800;53.928;27.662;2023-06-04T08:13:49;1.75;;;0.70;;
56911;SDS011;42800;53.928;27.662;2023-06-04T08:16:15;3.50;;;0.70;;
56911;SDS011;42800;53.928;27.662;2023-06-04T08:18:42;5.63;;;0.93;;
56911;SDS011;42800;53.928;27.662;2023-06-04T08:21:09;4.32;;;0.90;;
56911;SDS011;42800;53.928;27.662;2023-06-04T08:23:36;0.65;;;0.65;;
56911;SDS011;42800;53.928;27.662;2023-06-04T08:26:02;1.65;;;1.00;;
56911;SDS011;42800;53.928;27.662;2023-06-04T08:28:28;2.08;;;1.20;;
56911;SDS011;42800;53.928;27.662;2023-06-04T08:30:53;2.80;;;0.80;;
56911;SDS011;42800;53.928;27.662;2023-06-04T08:33:19;1.63;;;0.90;;
56911;SDS011;42800;53.928;27.662;2023-06-04T08:35:46;5.18;;;0.90;;
56911;SDS011;42800;53.928;27.662;2023-06-04T08:38:12;2.97;;;0.90;;
56911;SDS011;42800;53.928;27.662;2023-06-04T08:40:38;0.75;;;0.75;;
56911;SDS011;42800;53.928;27.662;2023-06-04T08:43:04;0.70;;;0.70;;
56911;SDS011;42800;53.928;27.662;2023-06-04T08:45:30;5.00;;;1.00;;
56911;SDS011;42800;53.928;27.662;2023-06-04T08:47:58;1.00;;;1.00;;
56911;SDS011;42800;53.928;27.662;2023-06-04T08:50:25;1.80;;;1.10;;
56911;SDS011;42800;53.928;27.662;2023-06-04T08:52:53;2.58;;;1.10;;
56911;SDS011;42800;53.928;27.662;2023-06-04T08:55:20;2.53;;;1.05;;
56911;SDS011;42800;53.928;27.662;2023-06-04T08:57:47;10.20;;;1.20;;
56911;SDS011;42800;53.928;27.662;2023-06-04T09:00:15;4.13;;;1.15;;
56911;SDS011;42800;53.928;27.662;2023-06-04T09:02:41;3.67;;;1.13;;
56911;SDS011;42800;53.928;27.662;2023-06-04T09:05:08;2.10;;;0.85;;
56911;SDS011;42800;53.928;27.662;2023-06-04T09:07:36;1.42;;;1.10;;
56911;SDS011;42800;53.928;27.662;2023-06-04T09:10:04;1.95;;;1.27;;
56911;SDS011;42800;53.928;27.662;2023-06-04T09:12:33;2.95;;;0.95;;
56911;SDS011;42800;53.928;27.662;2023-06-04T09:15:01;1.42;;;0.80;;
56911;SDS011;42800;53.928;27.662;2023-06-04T09:17:28;2.20;;;0.90;;
56911;SDS011;42800;53.928;27.662;2023-06-04T09:19:54;2.60;;;0.77;;
56911;SDS011;42800;53.928;27.662;2023-06-04T09:22:19;2.33;;;0.90;;
56911;SDS011;42800;53.928;27.662;2023-06-04T09:24:56;1.00;;;1.00;;
56911;SDS011;42800;53.928;27.662;2023-06-04T09:27:23;4.20;;;0.93;;
56911;SDS011;42800;53.928;27.662;2023-06-04T09:29:50;1.42;;;1.20;;
56911;SDS011;42800;53.928;27.662;2023-06-04T09:32:20;3.00;;;1.10;;
56911;SDS011;42800;53.928;27.662;2023-06-04T09:34:46;1.48;;;1.08;;
56911;SDS011;42800;53.928;27.662;2023-06-04T09:37:13;3.40;;;0.93;;
56911;SDS011;42800;53.928;27.662;2023-06-04T09:39:42;1.15;;;0.93;;
56911;SDS011;42800;53.928;27.662;2023-06-04T09:42:08;1.90;;;1.02;;
56911;SDS011;42800;53.928;27.662;2023-06-04T09:44:42;3.55;;;0.98;;
56911;SDS011;42800;53.928;27.662;2023-06-04T09:47:09;2.70;;;1.15;;
56911;SDS011;42800;53.928;27.662;2023-06-04T09:49:39;2.50;;;1.05;;
56911;SDS011;42800;53.928;27.662;2023-06-04T09:52:06;1.05;;;0.77;;
56911;SDS011;42800;53.928;27.662;2023-06-04T09:54:35;4.38;;;0.88;;
56911;SDS011;42800;53.928;27.662;2023-06-04T09:57:02;1.85;;;0.90;;
56911;SDS011;42800;53.928;27.662;2023-06-04T09:59:29;1.75;;;0.80;;
56911;SDS011;42800;53.928;27.662;2023-06-04T10:01:58;2.47;;;0.80;;
56911;SDS011;42800;53.928;27.662;2023-06-04T10:04:24;2.10;;;0.80;;
56911;SDS011;42800;53.928;27.662;2023-06-04T10:06:52;2.85;;;1.17;;
56911;SDS011;42800;53.928;27.662;2023-06-04T10:09:19;2.30;;;1.10;;
56911;SDS011;42800;53.928;27.662;2023-06-04T10:11:49;1.27;;;0.93;;
56911;SDS011;42800;53.928;27.662;2023-06-04T10:14:19;0.70;;;0.70;;
56911;SDS011;42800;53.928;27.662;2023-06-04T10:16:47;2.85;;;0.80;;
56911;SDS011;42800;53.928;27.662;2023-06-04T10:19:15;0.80;;;0.80;;
56911;SDS011;42800;53.928;27.662;2023-06-04T10:21:42;0.95;;;0.95;;
56911;SDS011;42800;53.928;27.662;2023-06-04T10:24:09;4.78;;;1.00;;
56911;SDS011;42800;53.928;27.662;2023-06-04T10:26:35;3.55;;;0.98;;
56911;SDS011;42800;53.928;27.662;2023-06-04T10:29:03;2.55;;;1.08;;
56911;SDS011;42800;53.928;27.662;2023-06-04T10:31:31;1.20;;;0.90;;
56911;SDS011;42800;53.928;27.662;2023-06-04T10:33:57;4.68;;;0.95;;
56911;SDS011;42800;53.928;27.662;2023-06-04T10:36:24;2.25;;;0.93;;
56911;SDS011;42800;53.928;27.662;2023-06-04T10:38:51;2.70;;;0.98;;
56911;SDS011;42800;53.928;27.662;2023-06-04T10:41:18;2.42;;;1.10;;
56911;SDS011;42800;53.928;27.662;2023-06-04T10:43:46;2.35;;;1.02;;
56911;SDS011;42800;53.928;27.662;2023-06-04T10:46:14;2.47;;;0.93;;
56911;SDS011;42800;53.928;27.662;2023-06-04T10:48:47;2.90;;;1.20;;
56911;SDS011;42800;53.928;27.662;2023-06-04T10:51:14;2.53;;;0.75;;
56911;SDS011;42800;53.928;27.662;2023-06-04T10:53:41;1.42;;;0.90;;
56911;SDS011;42800;53.928;27.662;2023-06-04T10:56:07;3.90;;;1.17;;
56911;SDS011;42800;53.928;27.662;2023-06-04T10:58:33;1.90;;;1.15;;
56911;SDS011;42800;53.928;27.662;2023-06-04T11:00:59;1.90;;;0.93;;
56911;SDS011;42800;53.928;27.662;2023-06-04T11:03:34;1.20;;;0.90;;
56911;SDS011;42800;53.928;27.662;2023-06-04T11:06:01;1.67;;;1.00;;
56911;SDS011;42800;53.928;27.662;2023-06-04T11:08:28;6.03;;;1.00;;
56911;SDS011;42800;53.928;27.662;2023-06-04T11:10:55;1.25;;;0.80;;
56911;SDS011;42800;53.928;27.662;2023-06-04T11:13:22;2.50;;;1.20;;
56911;SDS011;42800;53.928;27.662;2023-06-04T11:15:49;5.22;;;1.10;;
56911;SDS011;42800;53.928;27.662;2023-06-04T11:18:15;2.35;;;0.82;;
56911;SDS011;42800;53.928;27.662;2023-06-04T11:20:43;2.67;;;1.10;;
56911;SDS011;42800;53.928;27.662;2023-06-04T11:23:11;2.25;;;1.10;;
56911;SDS011;42800;53.928;27.662;2023-06-04T11:25:37;3.97;;;0.93;;
56911;SDS011;42800;53.928;27.662;2023-06-04T11:28:04;1.70;;;0.80;;
56911;SDS011;42800;53.928;27.662;2023-06-04T11:30:30;2.63;;;0.80;;
56911;SDS011;42800;53.928;27.662;2023-06-04T11:33:02;3.97;;;1.00;;
56911;SDS011;42800;53.928;27.662;2023-06-04T11:35:29;1.27;;;0.90;;
56911;SDS011;42800;53.928;27.662;2023-06-04T11:37:56;0.93;;;0.70;;
56911;SDS011;42800;53.928;27.662;2023-06-04T11:40:23;1.27;;;0.90;;
56911;SDS011;42800;53.928;27.662;2023-06-04T11:42:51;1.88;;;0.80;;
56911;SDS011;42800;53.928;27.662;2023-06-04T11:45:18;4.30;;;0.88;;
56911;SDS011;42800;53.928;27.662;2023-06-04T11:47:48;1.33;;;0.93;;
56911;SDS011;42800;53.928;27.662;2023-06-04T11:50:15;3.58;;;1.02;;
56911;SDS011;42800;53.928;27.662;2023-06-04T11:52:41;3.22;;;0.82;;
56911;SDS011;42800;53.928;27.662;2023-06-04T11:55:08;2.35;;;0.73;;
56911;SDS011;42800;53.928;27.662;2023-06-04T11:57:35;1.58;;;1.02;;
56911;SDS011;42800;53.928;27.662;2023-06-04T12:00:01;0.70;;;0.70;;
56911;SDS011;42800;53.928;27.662;2023-06-04T12:02:28;2.28;;;0.85;;
56911;SDS011;42800;53.928;27.662;2023-06-04T12:04:54;3.10;;;0.90;;
56911;SDS011;42800;53.928;27.662;2023-06-04T12:07:20;2.30;;;1.10;;
56911;SDS011;42800;53.928;27.662;2023-06-04T12:09:49;1.10;;;1.00;;
56911;SDS011;42800;53.928;27.662;2023-06-04T12:12:20;0.73;;;0.70;;
56911;SDS011;42800;53.928;27.662;2023-06-04T12:14:48;9.18;;;1.08;;
56911;SDS011;42800;53.928;27.662;2023-06-04T12:17:21;1.88;;;0.80;;
56911;SDS011;42800;53.928;27.662;2023-06-04T12:19:48;2.35;;;0.98;;
56911;SDS011;42800;53.928;27.662;2023-06-04T12:22:16;1.15;;;1.00;;
56911;SDS011;42800;53.928;27.662;2023-06-04T12:24:49;3.92;;;0.98;;
56911;SDS011;42800;53.928;27.662;2023-06-04T12:27:18;0.75;;;0.75;;
56911;SDS011;42800;53.928;27.662;2023-06-04T12:29:53;1.60;;;0.90;;
56911;SDS011;42800;53.928;27.662;2023-06-04T12:32:20;1.00;;;1.00;;
56911;SDS011;42800;53.928;27.662;2023-06-04T12:37:52;1.33;;;1.00;;
56911;SDS011;42800;53.928;27.662;2023-06-04T12:40:18;4.18;;;1.00;;
56911;SDS011;42800;53.928;27.662;2023-06-04T12:42:44;1.50;;;1.27;;
56911;SDS011;42800;53.928;27.662;2023-06-04T12:45:10;4.68;;;0.88;;
56911;SDS011;42800;53.928;27.662;2023-06-04T12:47:39;1.58;;;0.80;;
56911;SDS011;42800;53.928;27.662;2023-06-04T12:50:07;0.77;;;0.77;;
56911;SDS011;42800;53.928;27.662;2023-06-04T12:52:33;0.93;;;0.85;;
56911;SDS011;42800;53.928;27.662;2023-06-04T12:55:00;2.00;;;0.90;;
56911;SDS011;42800;53.928;27.662;2023-06-04T12:57:26;0.73;;;0.65;;
56911;SDS011;42800;53.928;27.662;2023-06-04T12:59:52;0.80;;;0.80;;
56911;SDS011;42800;53.928;27.662;2023-06-04T13:02:17;2.83;;;0.80;;
56911;SDS011;42800;53.928;27.662;2023-06-04T13:04:43;2.47;;;0.82;;
56911;SDS011;42800;53.928;27.662;2023-06-04T13:07:11;3.53;;;0.90;;
56911;SDS011;42800;53.928;27.662;2023-06-04T13:09:37;2.60;;;0.80;;
56911;SDS011;42800;53.928;27.662;2023-06-04T13:12:04;1.80;;;0.85;;
56911;SDS011;42800;53.928;27.662;2023-06-04T13:14:31;2.70;;;0.70;;
56911;SDS011;42800;53.928;27.662;2023-06-04T13:16:58;0.73;;;0.70;;
56911;SDS011;42800;53.928;27.662;2023-06-04T13:19:24;1.65;;;0.90;;
56911;SDS011;42800;53.928;27.662;2023-06-04T13:21:52;0.75;;;0.75;;
56911;SDS011;42800;53.928;27.662;2023-06-04T13:24:18;1.08;;;0.82;;
56911;SDS011;42800;53.928;27.662;2023-06-04T13:26:44;2.97;;;1.13;;
56911;SDS011;42800;53.928;27.662;2023-06-04T13:29:10;1.33;;;0.90;;
56911;SDS011;42800;53.928;27.662;2023-06-04T13:31:37;2.53;;;0.80;;
56911;SDS011;42800;53.928;27.662;2023-06-04T13:34:04;4.13;;;0.98;;
56911;SDS011;42800;53.928;27.662;2023-06-04T13:36:30;7.72;;;1.00;;
56911;SDS011;42800;53.928;27.662;2023-06-04T13:38:56;1.00;;;0.88;;
56911;SDS011;42800;53.928;27.662;2023-06-04T13:41:21;3.03;;;0.70;;
56911;SDS011;42800;53.928;27.662;2023-06-04T13:43:47;1.40;;;0.77;;
56911;SDS011;42800;53.928;27.662;2023-06-04T13:46:14;2.15;;;0.80;;
56911;SDS011;42800;53.928;27.662;2023-06-04T13:48:41;2.00;;;0.70;;
56911;SDS011;42800;53.928;27.662;2023-06-04T13:51:07;1.25;;;0.80;;
56911;SDS011;42800;53.928;27.662;2023-06-04T13:53:33;1.45;;;0.93;;
56911;SDS011;42800;53.928;27.662;2023-06-04T13:55:58;4.60;;;0.88;;
56911;SDS011;42800;53.928;27.662;2023-06-04T13:58:24;1.52;;;0.80;;
56911;SDS011;42800;53.928;27.662;2023-06-04T14:00:51;2.05;;;1.00;;
56911;SDS011;42800;53.928;27.662;2023-06-04T14:03:18;1.33;;;0.82;;
56911;SDS011;42800;53.928;27.662;2023-06-04T14:05:44;2.22;;;0.82;;
56911;SDS011;42800;53.928;27.662;2023-06-04T14:08:10;3.58;;;0.90;;
56911;SDS011;42800;53.928;27.662;2023-06-04T14:10:37;2.70;;;1.05;;
56911;SDS011;42800;53.928;27.662;2023-06-04T14:13:06;3.92;;;0.95;;
56911;SDS011;42800;53.928;27.662;2023-06-04T14:15:32;0.60;;;0.60;;
56911;SDS011;42800;53.928;27.662;2023-06-04T14:17:58;1.13;;;0.70;;
56911;SDS011;42800;53.928;27.662;2023-06-04T14:20:24;2.15;;;0.85;;
56911;SDS011;42800;53.928;27.662;2023-06-04T14:22:50;3.13;;;0.80;;
56911;SDS011;42800;53.928;27.662;2023-06-04T14:25:16;0.70;;;0.70;;
56911;SDS011;42800;53.928;27.662;2023-06-04T14:27:42;1.00;;;0.90;;
56911;SDS011;42800;53.928;27.662;2023-06-04T14:30:09;0.80;;;0.70;;
56911;SDS011;42800;53.928;27.662;2023-06-04T14:32:35;2.60;;;1.00;;
56911;SDS011;42800;53.928;27.662;2023-06-04T14:35:02;2.20;;;0.90;;